sensor_id;sensor_type;location;lat;lon;timestamp;pressure;altitude;pressure_sealevel;temperature;humidity
63343;BME280;49465;57.664;39.686;2024-01-30T00:02:38;100921.28;;;3.48;56.89
63343;BME280;49465;57.664;39.686;2024-01-30T00:05:14;100913.19;;;3.61;56.59
63343;BME280;49465;57.664;39.686;2024-01-30T00:07:46;100913.69;;;3.76;56.68
63343;BME280;49465;57.664;39.686;2024-01-30T00:10:22;100915.69;;;3.65;56.92
63343;BME280;49465;57.664;39.686;2024-01-30T00:12:57;100917.72;;;3.52;56.73
63343;BME280;49465;57.664;39.686;2024-01-30T00:15:31;100927.28;;;3.50;56.93
63343;BME280;49465;57.664;39.686;2024-01-30T00:18:05;100928.97;;;3.53;56.76
63343;BME280;49465;57.664;39.686;2024-01-30T00:20:37;100918.06;;;3.74;56.42
63343;BME280;49465;57.664;39.686;2024-01-30T00:23:09;100932.22;;;3.61;56.70
63343;BME280;49465;57.664;39.686;2024-01-30T00:25:38;100930.88;;;3.45;56.84
63343;BME280;49465;57.664;39.686;2024-01-30T00:28:10;100937.16;;;3.70;56.18
63343;BME280;49465;57.664;39.686;2024-01-30T00:30:45;100937.16;;;3.70;56.26
63343;BME280;49465;57.664;39.686;2024-01-30T00:33:15;100938.22;;;3.63;56.50
63343;BME280;49465;57.664;39.686;2024-01-30T00:35:52;100927.41;;;3.80;56.29
63343;BME280;49465;57.664;39.686;2024-01-30T00:38:22;100931.88;;;3.39;56.95
63343;BME280;49465;57.664;39.686;2024-01-30T00:40:54;100926.41;;;3.51;57.00
63343;BME280;49465;57.664;39.686;2024-01-30T00:43:28;100932.81;;;3.36;57.45
63343;BME280;49465;57.664;39.686;2024-01-30T00:46:00;100934.53;;;3.72;56.65
63343;BME280;49465;57.664;39.686;2024-01-30T00:48:30;100919.09;;;4.00;55.47
63343;BME280;49465;57.664;39.686;2024-01-30T00:51:05;100926.94;;;3.99;56.29
63343;BME280;49465;57.664;39.686;2024-01-30T00:53:35;100926.09;;;3.64;56.78
63343;BME280;49465;57.664;39.686;2024-01-30T00:56:07;100928.84;;;3.58;56.56
63343;BME280;49465;57.664;39.686;2024-01-30T00:58:42;100921.91;;;3.92;55.95
63343;BME280;49465;57.664;39.686;2024-01-30T01:01:15;100924.31;;;3.66;57.16
63343;BME280;49465;57.664;39.686;2024-01-30T01:03:45;100920.94;;;3.96;56.27
63343;BME280;49465;57.664;39.686;2024-01-30T01:06:20;100939.09;;;3.96;56.16
63343;BME280;49465;57.664;39.686;2024-01-30T01:08:51;100940.03;;;3.94;55.93
63343;BME280;49465;57.664;39.686;2024-01-30T01:11:26;100947.34;;;3.78;57.02
63343;BME280;49465;57.664;39.686;2024-01-30T01:13:53;100935.16;;;3.82;57.20
63343;BME280;49465;57.664;39.686;2024-01-30T01:16:22;100939.84;;;3.67;57.14
63343;BME280;49465;57.664;39.686;2024-01-30T01:18:51;100927.78;;;3.99;56.33
63343;BME280;49465;57.664;39.686;2024-01-30T01:21:24;100933.06;;;3.96;56.85
63343;BME280;49465;57.664;39.686;2024-01-30T01:23:53;100930.88;;;3.81;57.49
63343;BME280;49465;57.664;39.686;2024-01-30T01:26:28;100940.25;;;3.85;56.63
63343;BME280;49465;57.664;39.686;2024-01-30T01:28:58;100930.47;;;3.96;56.47
63343;BME280;49465;57.664;39.686;2024-01-30T01:31:30;100933.00;;;3.97;57.15
63343;BME280;49465;57.664;39.686;2024-01-30T01:33:59;100929.28;;;3.75;57.08
63343;BME280;49465;57.664;39.686;2024-01-30T01:36:29;100929.66;;;3.60;58.10
63343;BME280;49465;57.664;39.686;2024-01-30T01:38:58;100930.44;;;3.63;57.60
63343;BME280;49465;57.664;39.686;2024-01-30T01:41:36;100935.31;;;4.08;56.99
63343;BME280;49465;57.664;39.686;2024-01-30T01:44:05;100938.94;;;4.03;56.95
63343;BME280;49465;57.664;39.686;2024-01-30T01:46:41;100939.09;;;3.96;56.84
63343;BME280;49465;57.664;39.686;2024-01-30T01:49:14;100937.78;;;4.13;56.48
63343;BME280;49465;57.664;39.686;2024-01-30T01:51:48;100946.44;;;3.81;57.43
63343;BME280;49465;57.664;39.686;2024-01-30T01:54:23;100933.81;;;4.00;57.02
63343;BME280;49465;57.664;39.686;2024-01-30T01:56:57;100939.09;;;4.28;56.55
63343;BME280;49465;57.664;39.686;2024-01-30T01:59:24;100924.72;;;4.16;56.14
63343;BME280;49465;57.664;39.686;2024-01-30T02:01:56;100929.38;;;4.03;56.79
63343;BME280;49465;57.664;39.686;2024-01-30T02:04:28;100946.19;;;4.52;55.66
63343;BME280;49465;57.664;39.686;2024-01-30T02:06:57;100938.69;;;4.12;56.81
63343;BME280;49465;57.664;39.686;2024-01-30T02:09:30;100946.13;;;4.24;56.23
63343;BME280;49465;57.664;39.686;2024-01-30T02:12:04;100952.06;;;4.29;56.27
63343;BME280;49465;57.664;39.686;2024-01-30T02:14:55;100949.13;;;4.40;56.00
63343;BME280;49465;57.664;39.686;2024-01-30T02:17:37;100956.31;;;4.32;56.20
63343;BME280;49465;57.664;39.686;2024-01-30T02:20:10;100959.50;;;4.42;56.19
63343;BME280;49465;57.664;39.686;2024-01-30T02:22:52;100959.03;;;4.27;56.86
63343;BME280;49465;57.664;39.686;2024-01-30T02:25:42;100965.31;;;4.50;56.54
63343;BME280;49465;57.664;39.686;2024-01-30T02:28:14;100967.69;;;4.58;55.77
63343;BME280;49465;57.664;39.686;2024-01-30T02:30:49;100971.69;;;4.38;55.39
63343;BME280;49465;57.664;39.686;2024-01-30T02:33:24;100969.16;;;4.36;55.97
63343;BME280;49465;57.664;39.686;2024-01-30T02:35:58;100970.81;;;4.39;56.19
63343;BME280;49465;57.664;39.686;2024-01-30T02:38:38;100972.84;;;4.59;55.32
63343;BME280;49465;57.664;39.686;2024-01-30T02:41:10;100964.16;;;4.60;55.85
63343;BME280;49465;57.664;39.686;2024-01-30T02:43:42;100965.75;;;4.34;56.21
63343;BME280;49465;57.664;39.686;2024-01-30T02:46:13;100961.09;;;4.46;55.94
63343;BME280;49465;57.664;39.686;2024-01-30T02:48:48;100954.50;;;4.65;55.08
63343;BME280;49465;57.664;39.686;2024-01-30T02:51:20;100955.69;;;4.53;55.98
63343;BME280;49465;57.664;39.686;2024-01-30T02:53:47;100957.53;;;4.50;56.01
63343;BME280;49465;57.664;39.686;2024-01-30T02:56:17;100950.06;;;4.69;54.96
63343;BME280;49465;57.664;39.686;2024-01-30T02:58:46;100957.84;;;4.39;56.21
63343;BME280;49465;57.664;39.686;2024-01-30T03:01:18;100952.75;;;4.34;56.56
63343;BME280;49465;57.664;39.686;2024-01-30T03:03:50;100952.78;;;4.64;55.56
63343;BME280;49465;57.664;39.686;2024-01-30T03:06:23;100965.72;;;4.66;56.06
63343;BME280;49465;57.664;39.686;2024-01-30T03:08:49;100976.44;;;4.55;55.60
63343;BME280;49465;57.664;39.686;2024-01-30T03:11:24;100967.47;;;4.65;55.68
63343;BME280;49465;57.664;39.686;2024-01-30T03:13:58;100981.66;;;4.53;55.82
63343;BME280;49465;57.664;39.686;2024-01-30T03:16:34;100968.75;;;4.50;56.23
63343;BME280;49465;57.664;39.686;2024-01-30T03:19:05;100976.94;;;4.36;56.91
63343;BME280;49465;57.664;39.686;2024-01-30T03:21:40;100969.16;;;4.66;55.53
63343;BME280;49465;57.664;39.686;2024-01-30T03:24:09;100968.66;;;4.55;56.51
63343;BME280;49465;57.664;39.686;2024-01-30T03:26:38;100967.56;;;4.62;56.02
63343;BME280;49465;57.664;39.686;2024-01-30T03:29:13;100959.88;;;4.59;56.50
63343;BME280;49465;57.664;39.686;2024-01-30T03:31:47;100962.03;;;4.74;55.34
63343;BME280;49465;57.664;39.686;2024-01-30T03:34:16;100959.50;;;4.42;56.96
63343;BME280;49465;57.664;39.686;2024-01-30T03:36:45;100952.78;;;4.64;55.79
63343;BME280;49465;57.664;39.686;2024-01-30T03:39:14;100965.34;;;4.78;55.92
63343;BME280;49465;57.664;39.686;2024-01-30T03:41:47;100979.78;;;4.59;56.57
63343;BME280;49465;57.664;39.686;2024-01-30T03:44:22;100975.53;;;4.56;55.97
63343;BME280;49465;57.664;39.686;2024-01-30T03:46:54;100987.09;;;4.75;55.29
63343;BME280;49465;57.664;39.686;2024-01-30T03:49:26;100979.72;;;4.60;56.33
63343;BME280;49465;57.664;39.686;2024-01-30T03:51:57;100978.09;;;4.87;55.52
63343;BME280;49465;57.664;39.686;2024-01-30T03:54:26;100984.84;;;4.63;56.83
63343;BME280;49465;57.664;39.686;2024-01-30T03:56:55;100978.00;;;4.61;55.86
63343;BME280;49465;57.664;39.686;2024-01-30T03:59:30;100983.47;;;4.81;55.99
63343;BME280;49465;57.664;39.686;2024-01-30T04:02:05;100989.88;;;4.69;56.23
63343;BME280;49465;57.664;39.686;2024-01-30T04:04:34;100990.31;;;4.84;56.02
63343;BME280;49465;57.664;39.686;2024-01-30T04:07:00;100995.13;;;4.66;56.20
63343;BME280;49465;57.664;39.686;2024-01-30T04:09:32;100995.91;;;5.00;55.04
63343;BME280;49465;57.664;39.686;2024-01-30T04:12:02;100996.31;;;4.56;56.41
63343;BME280;49465;57.664;39.686;2024-01-30T04:14:33;100993.31;;;4.70;55.97
63343;BME280;49465;57.664;39.686;2024-01-30T04:17:05;100999.44;;;4.67;56.24
63343;BME280;49465;57.664;39.686;2024-01-30T04:19:37;100995.63;;;4.81;56.19
63343;BME280;49465;57.664;39.686;2024-01-30T04:22:03;101011.78;;;4.90;56.07
63343;BME280;49465;57.664;39.686;2024-01-30T04:24:32;101010.41;;;4.79;55.70
63343;BME280;49465;57.664;39.686;2024-01-30T04:27:04;101022.19;;;4.90;55.95
63343;BME280;49465;57.664;39.686;2024-01-30T04:29:30;101018.19;;;4.79;56.37
63343;BME280;49465;57.664;39.686;2024-01-30T04:32:00;101024.81;;;4.59;56.33
63343;BME280;49465;57.664;39.686;2024-01-30T04:34:32;101031.28;;;4.74;56.45
63343;BME280;49465;57.664;39.686;2024-01-30T04:36:59;101031.81;;;4.87;55.96
63343;BME280;49465;57.664;39.686;2024-01-30T04:39:25;101035.66;;;4.73;55.99
63343;BME280;49465;57.664;39.686;2024-01-30T04:41:57;101039.78;;;4.81;56.31
63343;BME280;49465;57.664;39.686;2024-01-30T04:44:29;101042.19;;;4.87;55.91
63343;BME280;49465;57.664;39.686;2024-01-30T04:47:05;101029.47;;;4.78;57.11
63343;BME280;49465;57.664;39.686;2024-01-30T04:49:38;101035.44;;;4.81;56.00
63343;BME280;49465;57.664;39.686;2024-01-30T04:52:13;101046.88;;;4.74;56.87
63343;BME280;49465;57.664;39.686;2024-01-30T04:54:54;101058.28;;;5.00;55.88
63343;BME280;49465;57.664;39.686;2024-01-30T04:57:31;101065.97;;;5.04;56.11
63343;BME280;49465;57.664;39.686;2024-01-30T05:00:02;101062.22;;;4.83;56.84
63343;BME280;49465;57.664;39.686;2024-01-30T05:02:40;101061.63;;;4.73;57.23
63343;BME280;49465;57.664;39.686;2024-01-30T05:05:09;101069.50;;;4.70;57.07
63343;BME280;49465;57.664;39.686;2024-01-30T05:07:41;101065.44;;;4.60;57.94
63343;BME280;49465;57.664;39.686;2024-01-30T05:10:16;101064.22;;;4.73;56.97
63343;BME280;49465;57.664;39.686;2024-01-30T05:12:50;101069.19;;;4.83;56.67
63343;BME280;49465;57.664;39.686;2024-01-30T05:15:20;101082.78;;;4.60;57.20
63343;BME280;49465;57.664;39.686;2024-01-30T05:17:55;101075.97;;;4.87;56.07
63343;BME280;49465;57.664;39.686;2024-01-30T05:20:27;101091.00;;;4.75;56.81
63343;BME280;49465;57.664;39.686;2024-01-30T05:22:59;101086.13;;;4.96;56.51
63343;BME280;49465;57.664;39.686;2024-01-30T05:25:49;101094.06;;;4.90;56.67
63343;BME280;49465;57.664;39.686;2024-01-30T05:28:25;101104.41;;;4.93;57.23
63343;BME280;49465;57.664;39.686;2024-01-30T05:31:08;101102.63;;;4.93;56.38
63343;BME280;49465;57.664;39.686;2024-01-30T05:33:38;101094.63;;;5.01;56.18
63343;BME280;49465;57.664;39.686;2024-01-30T05:36:14;101094.78;;;4.97;57.13
63343;BME280;49465;57.664;39.686;2024-01-30T05:41:28;101098.31;;;4.94;56.31
63343;BME280;49465;57.664;39.686;2024-01-30T05:44:01;101128.41;;;5.01;56.32
63343;BME280;49465;57.664;39.686;2024-01-30T05:46:35;101129.38;;;4.99;55.95
63343;BME280;49465;57.664;39.686;2024-01-30T05:49:04;101123.78;;;5.12;56.64
63343;BME280;49465;57.664;39.686;2024-01-30T05:51:35;101115.16;;;5.10;56.53
63343;BME280;49465;57.664;39.686;2024-01-30T05:54:19;101110.97;;;5.06;56.28
63343;BME280;49465;57.664;39.686;2024-01-30T05:56:51;101122.56;;;4.94;56.42
63343;BME280;49465;57.664;39.686;2024-01-30T05:59:26;101131.03;;;5.01;56.97
63343;BME280;49465;57.664;39.686;2024-01-30T06:02:01;101143.84;;;5.07;57.07
63343;BME280;49465;57.664;39.686;2024-01-30T06:04:28;101138.50;;;4.82;56.69
63343;BME280;49465;57.664;39.686;2024-01-30T06:06:58;101137.28;;;5.25;55.74
63343;BME280;49465;57.664;39.686;2024-01-30T06:09:30;101131.13;;;4.98;56.69
63343;BME280;49465;57.664;39.686;2024-01-30T06:11:59;101129.53;;;4.92;57.47
63343;BME280;49465;57.664;39.686;2024-01-30T06:14:31;101136.34;;;5.28;56.56
63343;BME280;49465;57.664;39.686;2024-01-30T06:17:03;101155.50;;;4.94;56.96
63343;BME280;49465;57.664;39.686;2024-01-30T06:19:38;101156.75;;;5.10;56.04
63343;BME280;49465;57.664;39.686;2024-01-30T06:22:13;101149.78;;;4.80;57.40
63343;BME280;49465;57.664;39.686;2024-01-30T06:24:47;101150.16;;;5.30;56.17
63343;BME280;49465;57.664;39.686;2024-01-30T06:27:20;101153.59;;;4.99;56.81
63343;BME280;49465;57.664;39.686;2024-01-30T06:29:53;101142.25;;;5.02;56.02
63343;BME280;49465;57.664;39.686;2024-01-30T06:32:22;101158.31;;;5.18;55.78
63343;BME280;49465;57.664;39.686;2024-01-30T06:34:51;101172.63;;;5.00;56.65
63343;BME280;49465;57.664;39.686;2024-01-30T06:37:22;101180.44;;;5.31;56.16
63343;BME280;49465;57.664;39.686;2024-01-30T06:39:53;101179.09;;;5.18;56.34
63343;BME280;49465;57.664;39.686;2024-01-30T06:42:25;101176.41;;;5.21;55.73
63343;BME280;49465;57.664;39.686;2024-01-30T06:45:03;101198.06;;;5.21;56.58
63343;BME280;49465;57.664;39.686;2024-01-30T06:47:36;101189.81;;;5.37;55.61
63343;BME280;49465;57.664;39.686;2024-01-30T06:50:11;101190.78;;;5.34;56.17
63343;BME280;49465;57.664;39.686;2024-01-30T06:52:44;101189.22;;;5.27;56.22
63343;BME280;49465;57.664;39.686;2024-01-30T06:55:22;101193.63;;;5.25;56.15
63343;BME280;49465;57.664;39.686;2024-01-30T06:57:51;101181.50;;;5.25;56.40
63343;BME280;49465;57.664;39.686;2024-01-30T07:00:20;101197.66;;;5.35;55.50
63343;BME280;49465;57.664;39.686;2024-01-30T07:02:50;101194.44;;;5.27;55.81
63343;BME280;49465;57.664;39.686;2024-01-30T07:05:22;101211.16;;;5.49;55.04
63343;BME280;49465;57.664;39.686;2024-01-30T07:07:54;101208.16;;;5.63;55.07
63343;BME280;49465;57.664;39.686;2024-01-30T07:10:25;101190.16;;;5.26;55.71
63343;BME280;49465;57.664;39.686;2024-01-30T07:12:55;101204.97;;;5.22;56.15
63343;BME280;49465;57.664;39.686;2024-01-30T07:15:21;101206.44;;;5.31;55.89
63343;BME280;49465;57.664;39.686;2024-01-30T07:17:51;101216.59;;;5.40;56.04
63343;BME280;49465;57.664;39.686;2024-01-30T07:20:22;101216.56;;;5.42;55.62
63343;BME280;49465;57.664;39.686;2024-01-30T07:23:01;101214.22;;;5.32;56.21
63343;BME280;49465;57.664;39.686;2024-01-30T07:25:41;101225.91;;;5.49;55.70
63343;BME280;49465;57.664;39.686;2024-01-30T07:28:28;101221.13;;;5.33;55.63
63343;BME280;49465;57.664;39.686;2024-01-30T07:30:57;101228.97;;;5.32;56.05
63343;BME280;49465;57.664;39.686;2024-01-30T07:33:45;101223.09;;;5.25;55.77
63343;BME280;49465;57.664;39.686;2024-01-30T07:36:17;101231.72;;;5.59;55.33
63343;BME280;49465;57.664;39.686;2024-01-30T07:38:52;101225.00;;;5.80;55.11
63343;BME280;49465;57.664;39.686;2024-01-30T07:41:21;101224.34;;;5.73;54.32
63343;BME280;49465;57.664;39.686;2024-01-30T07:43:51;101244.34;;;5.71;54.70
63343;BME280;49465;57.664;39.686;2024-01-30T07:46:22;101242.00;;;5.62;55.07
63343;BME280;49465;57.664;39.686;2024-01-30T07:48:54;101248.31;;;5.84;54.36
63343;BME280;49465;57.664;39.686;2024-01-30T07:51:22;101257.22;;;5.75;54.63
63343;BME280;49465;57.664;39.686;2024-01-30T07:53:54;101257.38;;;5.71;55.44
63343;BME280;49465;57.664;39.686;2024-01-30T07:56:24;101260.22;;;5.62;54.70
63343;BME280;49465;57.664;39.686;2024-01-30T07:58:56;101255.91;;;5.92;54.63
63343;BME280;49465;57.664;39.686;2024-01-30T08:01:29;101259.41;;;5.60;54.98
63343;BME280;49465;57.664;39.686;2024-01-30T08:04:06;101266.16;;;5.67;55.34
63343;BME280;49465;57.664;39.686;2024-01-30T08:06:47;101264.38;;;5.69;54.89
63343;BME280;49465;57.664;39.686;2024-01-30T08:09:25;101265.75;;;5.81;55.08
63343;BME280;49465;57.664;39.686;2024-01-30T08:11:57;101265.66;;;5.84;54.65
63343;BME280;49465;57.664;39.686;2024-01-30T08:14:23;101263.00;;;5.55;55.20
63343;BME280;49465;57.664;39.686;2024-01-30T08:17:01;101262.16;;;5.85;54.79
63343;BME280;49465;57.664;39.686;2024-01-30T08:19:34;101257.75;;;5.57;55.54
63343;BME280;49465;57.664;39.686;2024-01-30T08:22:08;101270.97;;;5.49;56.16
63343;BME280;49465;57.664;39.686;2024-01-30T08:24:34;101266.78;;;5.75;54.60
63343;BME280;49465;57.664;39.686;2024-01-30T08:27:30;101263.44;;;5.70;54.75
63343;BME280;49465;57.664;39.686;2024-01-30T08:30:02;101278.38;;;5.96;54.44
63343;BME280;49465;57.664;39.686;2024-01-30T08:32:31;101271.25;;;5.70;54.95
63343;BME280;49465;57.664;39.686;2024-01-30T08:35:01;101269.75;;;5.92;54.08
63343;BME280;49465;57.664;39.686;2024-01-30T08:37:45;101271.19;;;6.04;54.17
63343;BME280;49465;57.664;39.686;2024-01-30T08:40:16;101276.06;;;5.84;54.44
63343;BME280;49465;57.664;39.686;2024-01-30T08:42:51;101277.03;;;5.81;54.63
63343;BME280;49465;57.664;39.686;2024-01-30T08:45:27;101274.00;;;5.65;55.05
63343;BME280;49465;57.664;39.686;2024-01-30T08:48:05;101275.16;;;5.86;54.46
63343;BME280;49465;57.664;39.686;2024-01-30T08:50:40;101277.50;;;5.96;53.85
63343;BME280;49465;57.664;39.686;2024-01-30T08:53:14;101286.09;;;5.98;54.04
63343;BME280;49465;57.664;39.686;2024-01-30T08:55:46;101272.09;;;6.02;53.76
63343;BME280;49465;57.664;39.686;2024-01-30T08:58:18;101278.50;;;5.90;53.60
63343;BME280;49465;57.664;39.686;2024-01-30T09:00:47;101280.44;;;5.83;54.22
63343;BME280;49465;57.664;39.686;2024-01-30T09:03:25;101282.66;;;5.97;53.68
63343;BME280;49465;57.664;39.686;2024-01-30T09:05:57;101288.09;;;5.88;53.95
63343;BME280;49465;57.664;39.686;2024-01-30T09:08:34;101283.25;;;6.07;54.01
63343;BME280;49465;57.664;39.686;2024-01-30T09:11:09;101290.75;;;5.86;54.69
63343;BME280;49465;57.664;39.686;2024-01-30T09:13:39;101284.84;;;6.11;53.51
63343;BME280;49465;57.664;39.686;2024-01-30T09:16:08;101270.25;;;6.05;53.42
63343;BME280;49465;57.664;39.686;2024-01-30T09:18:37;101274.41;;;5.81;53.79
63343;BME280;49465;57.664;39.686;2024-01-30T09:21:04;101282.81;;;5.91;53.83
63343;BME280;49465;57.664;39.686;2024-01-30T09:23:36;101280.88;;;5.99;53.81
63343;BME280;49465;57.664;39.686;2024-01-30T09:26:08;101283.00;;;6.14;53.51
63343;BME280;49465;57.664;39.686;2024-01-30T09:28:39;101287.19;;;5.90;53.68
63343;BME280;49465;57.664;39.686;2024-01-30T09:31:10;101284.78;;;6.14;53.28
63343;BME280;49465;57.664;39.686;2024-01-30T09:33:39;101292.69;;;6.09;52.76
63343;BME280;49465;57.664;39.686;2024-01-30T09:36:18;101295.38;;;6.08;53.64
63343;BME280;49465;57.664;39.686;2024-01-30T09:38:56;101294.66;;;6.03;53.89
63343;BME280;49465;57.664;39.686;2024-01-30T09:41:36;101292.06;;;6.31;53.06
63343;BME280;49465;57.664;39.686;2024-01-30T09:44:11;101294.63;;;6.32;52.79
63343;BME280;49465;57.664;39.686;2024-01-30T09:46:46;101298.06;;;6.33;52.60
63343;BME280;49465;57.664;39.686;2024-01-30T09:49:21;101309.47;;;6.01;53.32
63343;BME280;49465;57.664;39.686;2024-01-30T09:51:56;101306.22;;;6.22;53.20
63343;BME280;49465;57.664;39.686;2024-01-30T09:54:34;101303.78;;;6.18;53.38
63343;BME280;49465;57.664;39.686;2024-01-30T09:57:08;101301.66;;;6.29;52.78
63343;BME280;49465;57.664;39.686;2024-01-30T09:59:45;101301.25;;;6.43;52.37
63343;BME280;49465;57.664;39.686;2024-01-30T10:02:20;101297.03;;;6.10;53.42
63343;BME280;49465;57.664;39.686;2024-01-30T10:04:55;101293.03;;;5.99;53.20
63343;BME280;49465;57.664;39.686;2024-01-30T10:07:27;101297.78;;;6.14;53.09
63343;BME280;49465;57.664;39.686;2024-01-30T10:09:57;101303.81;;;6.16;52.57
63343;BME280;49465;57.664;39.686;2024-01-30T10:12:30;101298.50;;;6.19;53.06
63343;BME280;49465;57.664;39.686;2024-01-30T10:15:08;101289.25;;;6.09;53.70
63343;BME280;49465;57.664;39.686;2024-01-30T10:17:41;101288.72;;;5.98;53.97
63343;BME280;49465;57.664;39.686;2024-01-30T10:20:16;101293.13;;;6.25;52.79
63343;BME280;49465;57.664;39.686;2024-01-30T10:22:50;101291.47;;;5.91;53.78
63343;BME280;49465;57.664;39.686;2024-01-30T10:25:26;101300.28;;;6.17;53.22
63343;BME280;49465;57.664;39.686;2024-01-30T10:28:02;101302.41;;;6.04;53.38
63343;BME280;49465;57.664;39.686;2024-01-30T10:30:31;101297.41;;;6.26;52.70
63343;BME280;49465;57.664;39.686;2024-01-30T10:33:04;101294.88;;;5.95;53.66
63343;BME280;49465;57.664;39.686;2024-01-30T10:35:37;101307.88;;;5.95;53.51
63343;BME280;49465;57.664;39.686;2024-01-30T10:38:13;101307.13;;;5.90;53.35
63343;BME280;49465;57.664;39.686;2024-01-30T10:41:04;101301.09;;;6.19;52.40
63343;BME280;49465;57.664;39.686;2024-01-30T10:43:42;101290.25;;;6.33;52.56
63343;BME280;49465;57.664;39.686;2024-01-30T10:46:20;101296.53;;;6.27;52.99
63343;BME280;49465;57.664;39.686;2024-01-30T10:49:03;101301.56;;;6.33;52.77
63343;BME280;49465;57.664;39.686;2024-01-30T10:51:40;101297.59;;;6.48;52.10
63343;BME280;49465;57.664;39.686;2024-01-30T10:54:16;101303.97;;;6.40;52.27
63343;BME280;49465;57.664;39.686;2024-01-30T10:56:52;101311.16;;;6.31;52.60
63343;BME280;49465;57.664;39.686;2024-01-30T10:59:30;101311.19;;;6.30;52.88
63343;BME280;49465;57.664;39.686;2024-01-30T11:02:07;101307.59;;;6.06;53.55
63343;BME280;49465;57.664;39.686;2024-01-30T11:04:49;101314.47;;;6.07;53.57
63343;BME280;49465;57.664;39.686;2024-01-30T11:07:28;101315.38;;;6.36;52.67
63343;BME280;49465;57.664;39.686;2024-01-30T11:10:09;101314.75;;;6.56;52.51
63343;BME280;49465;57.664;39.686;2024-01-30T11:12:47;101309.41;;;6.32;52.54
63343;BME280;49465;57.664;39.686;2024-01-30T11:15:28;101324.22;;;6.58;52.65
63343;BME280;49465;57.664;39.686;2024-01-30T11:18:07;101316.84;;;6.44;52.53
63343;BME280;49465;57.664;39.686;2024-01-30T11:20:47;101311.63;;;6.44;52.64
63343;BME280;49465;57.664;39.686;2024-01-30T11:23:28;101310.50;;;6.53;52.94
63343;BME280;49465;57.664;39.686;2024-01-30T11:26:01;101307.63;;;6.04;53.58
63343;BME280;49465;57.664;39.686;2024-01-30T11:28:41;101315.75;;;6.51;52.96
63343;BME280;49465;57.664;39.686;2024-01-30T11:31:22;101321.00;;;6.50;52.84
63343;BME280;49465;57.664;39.686;2024-01-30T11:33:56;101321.72;;;6.55;52.32
63343;BME280;49465;57.664;39.686;2024-01-30T11:36:31;101322.50;;;6.29;52.59
63343;BME280;49465;57.664;39.686;2024-01-30T11:39:06;101319.25;;;6.50;52.20
63343;BME280;49465;57.664;39.686;2024-01-30T11:41:34;101319.25;;;6.22;52.48
63343;BME280;49465;57.664;39.686;2024-01-30T11:44:04;101329.50;;;6.27;52.51
63343;BME280;49465;57.664;39.686;2024-01-30T11:46:39;101330.47;;;6.52;52.00
63343;BME280;49465;57.664;39.686;2024-01-30T11:49:15;101322.19;;;6.40;51.84
63343;BME280;49465;57.664;39.686;2024-01-30T11:51:42;101328.59;;;6.29;52.10
63343;BME280;49465;57.664;39.686;2024-01-30T11:54:15;101327.25;;;6.44;52.46
63343;BME280;49465;57.664;39.686;2024-01-30T11:56:49;101346.03;;;6.27;52.21
63343;BME280;49465;57.664;39.686;2024-01-30T11:59:20;101329.31;;;7.16;50.93
63343;BME280;49465;57.664;39.686;2024-01-30T12:01:57;101328.34;;;6.65;51.50
63343;BME280;49465;57.664;39.686;2024-01-30T12:04:29;101332.22;;;6.24;52.53
63343;BME280;49465;57.664;39.686;2024-01-30T12:06:59;101332.63;;;6.40;52.02
63343;BME280;49465;57.664;39.686;2024-01-30T12:09:51;101337.72;;;6.43;52.27
63343;BME280;49465;57.664;39.686;2024-01-30T12:12:25;101342.47;;;6.58;51.69
63343;BME280;49465;57.664;39.686;2024-01-30T12:14:55;101347.59;;;6.61;51.12
63343;BME280;49465;57.664;39.686;2024-01-30T12:17:30;101347.41;;;6.67;51.17
63343;BME280;49465;57.664;39.686;2024-01-30T12:20:12;101349.28;;;6.90;51.50
63343;BME280;49465;57.664;39.686;2024-01-30T12:22:46;101348.81;;;6.49;51.35
63343;BME280;49465;57.664;39.686;2024-01-30T12:25:15;101343.56;;;6.51;51.38
63343;BME280;49465;57.664;39.686;2024-01-30T12:27:49;101344.44;;;6.78;51.10
63343;BME280;49465;57.664;39.686;2024-01-30T12:30:21;101346.41;;;6.71;51.02
63343;BME280;49465;57.664;39.686;2024-01-30T12:32:50;101344.94;;;6.63;50.61
63343;BME280;49465;57.664;39.686;2024-01-30T12:35:18;101355.56;;;6.57;51.09
63343;BME280;49465;57.664;39.686;2024-01-30T12:37:50;101349.47;;;6.56;51.61
63343;BME280;49465;57.664;39.686;2024-01-30T12:40:25;101345.91;;;6.30;51.71
63343;BME280;49465;57.664;39.686;2024-01-30T12:42:52;101344.16;;;6.31;51.38
63343;BME280;49465;57.664;39.686;2024-01-30T12:45:19;101344.03;;;6.36;51.28
63343;BME280;49465;57.664;39.686;2024-01-30T12:48:00;101344.19;;;6.59;51.14
63343;BME280;49465;57.664;39.686;2024-01-30T12:50:29;101346.25;;;6.48;50.82
63343;BME280;49465;57.664;39.686;2024-01-30T12:52:59;101344.72;;;6.41;51.17
63343;BME280;49465;57.664;39.686;2024-01-30T12:55:26;101352.78;;;6.33;51.07
63343;BME280;49465;57.664;39.686;2024-01-30T12:57:57;101360.91;;;6.52;50.70
63343;BME280;49465;57.664;39.686;2024-01-30T13:00:37;101365.91;;;6.58;50.93
63343;BME280;49465;57.664;39.686;2024-01-30T13:03:14;101363.97;;;6.37;50.84
63343;BME280;49465;57.664;39.686;2024-01-30T13:05:44;101378.88;;;6.31;50.84
63343;BME280;49465;57.664;39.686;2024-01-30T13:08:10;101379.69;;;6.33;50.79
63343;BME280;49465;57.664;39.686;2024-01-30T13:10:40;101385.09;;;6.27;50.53
63343;BME280;49465;57.664;39.686;2024-01-30T13:13:17;101384.72;;;6.40;50.80
63343;BME280;49465;57.664;39.686;2024-01-30T13:15:49;101379.38;;;6.44;50.73
63343;BME280;49465;57.664;39.686;2024-01-30T13:18:24;101382.38;;;6.30;50.51
63343;BME280;49465;57.664;39.686;2024-01-30T13:20:51;101385.09;;;6.27;50.74
63343;BME280;49465;57.664;39.686;2024-01-30T13:23:23;101384.78;;;6.37;50.44
63343;BME280;49465;57.664;39.686;2024-01-30T13:26:01;101397.13;;;6.31;50.67